Greenehaven, Arizona
Current Conditions -  °F | °C
As of 9:53 PM on Friday 28 Nov 2014 (Local Time) from KPGA Reporting Station
Clear Clear  
Wind Chill: 42°   Ceiling: Unl
Heat Index: 42°   Visibility: 10mi
Dew Point: 20°   Wind: 0mph
Humidity: 41%   Direction: NA
Pressure: 29.99"   Gusts: NA
Location:  36.8282°N, 111.153°W
Report Text: KPGA 290453Z AUTO 00000KT 10SM CLR 06/M07 A2999 RMK AO2 SLP142 T00561067 TSNO
Loading
Personal Weather Stations






























Interactive Weather Map New forecast layout! Learn more

10-Day Weather Forecast

Advertisements
Track Severe Weather on mobile